Thunderstorms From: 15-12-2017 06:00 Until: 16-12-2017 06:00 warning for: Thunderstorms Level: Yellow info button

Although rather usual in this region, locally or potentially dangerous phenomena are expected. (such as local winds, summer thunderstorms, rising streams or high waves) Be aware and pay attention to the latest weather updates, especially if you carry out activities exposed to weather or close to a stream or shoreline. 


Meteo18 Weather Cam more information Meteo18 Weather Cam


warning for Thunderstorms more information blitzortung!


Rain radar more information rain snow radar


Visit our other weather sites:

Template documentation
and downloads

And another site



Weather Underground History page Text

Daily Summary for July 16, 2017 Units:  Metric    English   Both
« Previous Day
Next Day »
Daily Weekly Monthly Yearly Custom
  High: Low: Average:
Temperature: 29.3 °C 13.9 °C 22.4 °C
Dew Point: 16.0 °C 11.6 °C 14 °C
Humidity: 89 % 42 % 61 %
Wind Speed: 19.3 km/h 0.0 km/h 3.1 km/h
Wind Gust: 25.7 km/h - -
Wind:- - SE
Pressure: 1026.0 hPa 1022.2 hPa -
Precipitation: 0.0 mm    
Historical Graphs
 
 
Tabular Data for July 16, 2017
Time Temperature Dew Point Pressure Wind Wind Speed Wind Gust Humidity Rainfall Rate (Hourly)
00:02 17.3 °C 12.2 °C 1025.3 hPa Calm     72 % 0.0 mm
00:07 17.2 °C 12.1 °C 1025.3 hPa Calm     72 % 0.0 mm
00:12 17.1 °C 12.2 °C 1025.3 hPa Calm   1.6 km/h 73 % 0.0 mm
00:17 16.9 °C 12.2 °C 1025.3 hPa Calm   1.6 km/h 74 % 0.0 mm
00:22 16.9 °C 12.2 °C 1025.3 hPa Calm   1.6 km/h 74 % 0.0 mm
00:32 17.1 °C 12.2 °C 1025.3 hPa Calm   1.6 km/h 73 % 0.0 mm
00:37 16.9 °C 12.2 °C 1025.3 hPa Calm   1.6 km/h 74 % 0.0 mm
00:42 16.8 °C 12.3 °C 1025.3 hPa Calm   1.6 km/h 75 % 0.0 mm
00:52 16.6 °C 12.1 °C 1024.9 hPa Calm     75 % 0.0 mm
00:57 16.4 °C 12.2 °C 1024.9 hPa WNW 1.6 km/h 1.6 km/h 76 % 0.0 mm
01:02 16.4 °C 12.4 °C 1024.9 hPa WNW 1.6 km/h 1.6 km/h 77 % 0.0 mm
01:12 16.1 °C 12.3 °C 1024.9 hPa Calm   3.2 km/h 78 % 0.0 mm
01:17 16.1 °C 12.3 °C 1024.9 hPa WNW 1.6 km/h 3.2 km/h 78 % 0.0 mm
01:22 15.9 °C 12.1 °C 1025.3 hPa Calm   3.2 km/h 78 % 0.0 mm
01:27 15.9 °C 12.3 °C 1024.9 hPa Calm   1.6 km/h 79 % 0.0 mm
01:32 15.9 °C 12.3 °C 1025.3 hPa Calm   1.6 km/h 79 % 0.0 mm
01:37 15.8 °C 12.2 °C 1025.3 hPa Calm     79 % 0.0 mm
01:42 15.8 °C 12.2 °C 1024.9 hPa Calm     79 % 0.0 mm
01:47 15.7 °C 12.1 °C 1024.9 hPa Calm     79 % 0.0 mm
01:52 15.7 °C 12.1 °C 1024.9 hPa Calm   1.6 km/h 79 % 0.0 mm
01:57 15.8 °C 12.2 °C 1024.9 hPa Calm   1.6 km/h 79 % 0.0 mm
02:02 15.7 °C 12.1 °C 1024.9 hPa North 1.6 km/h 1.6 km/h 79 % 0.0 mm
02:12 15.6 °C 12.2 °C 1025.3 hPa Calm   1.6 km/h 80 % 0.0 mm
02:17 15.5 °C 12.1 °C 1025.3 hPa NNE 1.6 km/h 1.6 km/h 80 % 0.0 mm
02:22 15.4 °C 12.0 °C 1025.3 hPa Calm   1.6 km/h 80 % 0.0 mm
02:27 15.4 °C 12.2 °C 1025.3 hPa Calm   1.6 km/h 81 % 0.0 mm
02:32 15.3 °C 12.1 °C 1025.3 hPa Calm   1.6 km/h 81 % 0.0 mm
02:37 15.1 °C 12.0 °C 1024.9 hPa Calm   1.6 km/h 82 % 0.0 mm
02:42 14.9 °C 12.0 °C 1024.9 hPa WNW 1.6 km/h 1.6 km/h 83 % 0.0 mm
02:47 14.8 °C 11.9 °C 1025.3 hPa Calm   1.6 km/h 83 % 0.0 mm
02:52 14.8 °C 11.9 °C 1024.9 hPa Calm   1.6 km/h 83 % 0.0 mm
02:57 14.7 °C 12.0 °C 1025.3 hPa Calm   1.6 km/h 84 % 0.0 mm
03:02 14.8 °C 12.1 °C 1025.3 hPa Calm     84 % 0.0 mm
03:07 15.1 °C 12.2 °C 1025.3 hPa Calm     83 % 0.0 mm
03:12 15.1 °C 12.0 °C 1025.3 hPa Calm     82 % 0.0 mm
03:17 15.0 °C 12.0 °C 1024.9 hPa Calm     82 % 0.0 mm
03:22 14.9 °C 12.0 °C 1024.9 hPa Calm     83 % 0.0 mm
03:27 14.8 °C 11.9 °C 1024.9 hPa Calm     83 % 0.0 mm
03:32 14.7 °C 12.0 °C 1025.3 hPa Calm     84 % 0.0 mm
03:37 14.5 °C 11.8 °C 1025.3 hPa Calm     84 % 0.0 mm
03:42 14.3 °C 11.8 °C 1025.3 hPa Calm     85 % 0.0 mm
03:47 14.2 °C 11.7 °C 1025.3 hPa Calm     85 % 0.0 mm
03:52 14.2 °C 11.9 °C 1025.3 hPa Calm     86 % 0.0 mm
03:57 14.2 °C 11.9 °C 1025.3 hPa Calm     86 % 0.0 mm
04:02 14.2 °C 11.9 °C 1025.3 hPa Calm     86 % 0.0 mm
04:12 14.3 °C 12.0 °C 1025.3 hPa Calm     86 % 0.0 mm
04:17 14.3 °C 11.8 °C 1025.3 hPa Calm     85 % 0.0 mm
04:22 14.2 °C 11.7 °C 1025.3 hPa Calm     85 % 0.0 mm
04:32 14.4 °C 11.7 °C 1025.3 hPa Calm     84 % 0.0 mm
04:37 14.4 °C 11.7 °C 1025.3 hPa Calm     84 % 0.0 mm
04:42 14.4 °C 11.7 °C 1025.3 hPa Calm     84 % 0.0 mm
04:47 14.4 °C 11.7 °C 1025.3 hPa Calm     84 % 0.0 mm
04:52 14.4 °C 11.7 °C 1025.3 hPa Calm     84 % 0.0 mm
04:57 14.4 °C 11.7 °C 1025.3 hPa Calm     84 % 0.0 mm
05:02 14.3 °C 11.6 °C 1025.3 hPa Calm     84 % 0.0 mm
05:12 14.2 °C 11.7 °C 1025.3 hPa Calm     85 % 0.0 mm
05:17 14.2 °C 11.7 °C 1025.3 hPa Calm     85 % 0.0 mm
05:22 14.1 °C 11.6 °C 1025.3 hPa Calm     85 % 0.0 mm
05:32 13.9 °C 11.6 °C 1025.3 hPa Calm     86 % 0.0 mm
05:42 13.9 °C 11.6 °C 1025.3 hPa Calm     86 % 0.0 mm
05:47 13.9 °C 11.6 °C 1025.3 hPa Calm     86 % 0.0 mm
05:52 13.9 °C 11.6 °C 1025.3 hPa Calm     86 % 0.0 mm
05:57 14.1 °C 12.0 °C 1025.3 hPa Calm     87 % 0.0 mm
06:02 14.2 °C 12.1 °C 1025.3 hPa Calm     87 % 0.0 mm
06:12 14.3 °C 12.2 °C 1025.3 hPa Calm     87 % 0.0 mm
06:17 14.3 °C 12.0 °C 1025.3 hPa Calm     86 % 0.0 mm
06:22 14.4 °C 12.1 °C 1025.3 hPa Calm     86 % 0.0 mm
06:32 14.7 °C 12.6 °C 1025.3 hPa Calm     87 % 0.0 mm
06:42 14.9 °C 12.8 °C 1025.3 hPa Calm     87 % 0.0 mm
06:47 14.9 °C 12.6 °C 1025.3 hPa Calm     86 % 0.0 mm
06:52 15.0 °C 12.7 °C 1025.3 hPa Calm     86 % 0.0 mm
06:57 15.1 °C 13.0 °C 1025.6 hPa Calm     87 % 0.0 mm
07:02 15.1 °C 12.6 °C 1025.6 hPa Calm     85 % 0.0 mm
07:12 15.1 °C 13.0 °C 1025.6 hPa Calm     87 % 0.0 mm
07:17 15.1 °C 13.0 °C 1025.6 hPa Calm     87 % 0.0 mm
07:22 15.2 °C 13.2 °C 1025.6 hPa Calm     88 % 0.0 mm
07:27 15.2 °C 13.4 °C 1025.6 hPa Calm     89 % 0.0 mm
07:32 15.3 °C 13.3 °C 1025.6 hPa Calm     88 % 0.0 mm
07:42 15.6 °C 13.4 °C 1026.0 hPa Calm     87 % 0.0 mm
07:52 15.8 °C 13.3 °C 1026.0 hPa Calm     85 % 0.0 mm
07:57 16.1 °C 13.6 °C 1026.0 hPa Calm     85 % 0.0 mm
08:02 16.4 °C 13.7 °C 1026.0 hPa Calm     84 % 0.0 mm
08:12 17.2 °C 14.1 °C 1026.0 hPa Calm     82 % 0.0 mm
08:17 17.6 °C 14.1 °C 1026.0 hPa Calm     80 % 0.0 mm
08:22 17.8 °C 13.9 °C 1026.0 hPa Calm     78 % 0.0 mm
08:32 18.2 °C 13.9 °C 1026.0 hPa Calm     76 % 0.0 mm
08:37 18.4 °C 13.9 °C 1026.0 hPa Calm     75 % 0.0 mm
08:42 18.6 °C 13.9 °C 1026.0 hPa Calm     74 % 0.0 mm
08:47 18.9 °C 14.0 °C 1026.0 hPa Calm     73 % 0.0 mm
08:52 19.3 °C 13.5 °C 1026.0 hPa Calm     69 % 0.0 mm
08:57 19.6 °C 13.5 °C 1026.0 hPa Calm     68 % 0.0 mm
09:02 20.0 °C 13.7 °C 1026.0 hPa Calm     67 % 0.0 mm
09:12 21.2 °C 13.9 °C 1026.0 hPa Calm     63 % 0.0 mm
09:17 21.6 °C 13.8 °C 1026.0 hPa Calm     61 % 0.0 mm
09:27 22.2 °C 14.1 °C 1026.0 hPa Calm   3.2 km/h 60 % 0.0 mm
09:32 22.3 °C 13.6 °C 1026.0 hPa SSW 1.6 km/h 3.2 km/h 58 % 0.0 mm
09:37 22.8 °C 13.8 °C 1026.0 hPa Calm   3.2 km/h 57 % 0.0 mm
09:42 22.8 °C 13.0 °C 1026.0 hPa SSW 1.6 km/h 3.2 km/h 54 % 0.0 mm
09:47 22.9 °C 13.1 °C 1026.0 hPa Calm   4.8 km/h 54 % 0.0 mm
09:52 23.3 °C 13.2 °C 1026.0 hPa South 1.6 km/h 4.8 km/h 53 % 0.0 mm
09:57 23.4 °C 13.0 °C 1026.0 hPa SSW 1.6 km/h 4.8 km/h 52 % 0.0 mm
10:02 23.4 °C 13.0 °C 1026.0 hPa SSW 3.2 km/h 4.8 km/h 52 % 0.0 mm
10:12 23.4 °C 13.0 °C 1026.0 hPa Calm   4.8 km/h 52 % 0.0 mm
10:17 23.5 °C 12.8 °C 1026.0 hPa SW 1.6 km/h 4.8 km/h 51 % 0.0 mm
10:22 23.8 °C 13.1 °C 1026.0 hPa SSE 1.6 km/h 4.8 km/h 51 % 0.0 mm
10:27 23.9 °C 13.1 °C 1026.0 hPa West 1.6 km/h 4.8 km/h 51 % 0.0 mm
10:32 24.1 °C 13.3 °C 1025.6 hPa Calm   4.8 km/h 51 % 0.0 mm
10:37 24.6 °C 12.9 °C 1026.0 hPa NE 3.2 km/h 4.8 km/h 48 % 0.0 mm
10:42 24.5 °C 12.8 °C 1025.6 hPa East 6.4 km/h 6.4 km/h 48 % 0.0 mm
10:47 24.3 °C 12.6 °C 1025.6 hPa ESE 1.6 km/h 8.0 km/h 48 % 0.0 mm
10:52 24.5 °C 13.4 °C 1025.6 hPa East 3.2 km/h 9.7 km/h 50 % 0.0 mm
11:02 25.0 °C 12.9 °C 1025.6 hPa East 3.2 km/h 9.7 km/h 47 % 0.0 mm
11:12 24.9 °C 12.8 °C 1025.6 hPa Calm   6.4 km/h 47 % 0.0 mm
11:17 25.2 °C 13.1 °C 1025.6 hPa NNE 6.4 km/h 9.7 km/h 47 % 0.0 mm
11:22 25.1 °C 13.0 °C 1025.6 hPa WSW 1.6 km/h 9.7 km/h 47 % 0.0 mm
11:27 25.2 °C 13.4 °C 1025.6 hPa ENE 3.2 km/h 12.9 km/h 48 % 0.0 mm
11:32 25.3 °C 13.2 °C 1025.3 hPa ENE 8.0 km/h 12.9 km/h 47 % 0.0 mm
11:42 25.4 °C 13.3 °C 1025.3 hPa ENE 4.8 km/h 14.5 km/h 47 % 0.0 mm
11:52 25.3 °C 13.5 °C 1025.6 hPa East 4.8 km/h 12.9 km/h 48 % 0.0 mm
11:57 25.6 °C 13.5 °C 1025.3 hPa East 1.6 km/h 17.7 km/h 47 % 0.0 mm
12:02 25.7 °C 13.9 °C 1025.3 hPa ESE 3.2 km/h 17.7 km/h 48 % 0.0 mm
12:12 25.9 °C 13.4 °C 1025.3 hPa NNW 4.8 km/h 12.9 km/h 46 % 0.0 mm
12:17 25.7 °C 13.2 °C 1025.3 hPa SSE 1.6 km/h 14.5 km/h 46 % 0.0 mm
12:22 26.2 °C 14.0 °C 1025.3 hPa ENE 6.4 km/h 14.5 km/h 47 % 0.0 mm
12:32 26.1 °C 13.6 °C 1025.3 hPa ENE 6.4 km/h 14.5 km/h 46 % 0.0 mm
12:42 26.5 °C 13.6 °C 1025.3 hPa ENE 6.4 km/h 12.9 km/h 45 % 0.0 mm
12:52 26.7 °C 14.1 °C 1025.3 hPa NNW 1.6 km/h 14.5 km/h 46 % 0.0 mm
13:02 26.8 °C 14.2 °C 1024.9 hPa ENE 3.2 km/h 16.1 km/h 46 % 0.0 mm
13:12 27.0 °C 14.4 °C 1024.9 hPa North 11.3 km/h 12.9 km/h 46 % 0.0 mm
13:17 27.1 °C 14.1 °C 1024.9 hPa North 14.5 km/h 20.9 km/h 45 % 0.0 mm
13:22 27.0 °C 14.1 °C 1024.9 hPa NW 8.0 km/h 22.5 km/h 45 % 0.0 mm
13:32 26.8 °C 14.2 °C 1024.9 hPa Calm   20.9 km/h 46 % 0.0 mm
13:42 27.1 °C 14.1 °C 1024.9 hPa West 1.6 km/h 16.1 km/h 45 % 0.0 mm
13:47 27.0 °C 14.7 °C 1024.6 hPa Calm   16.1 km/h 47 % 0.0 mm
13:52 27.4 °C 14.8 °C 1024.6 hPa Calm   16.1 km/h 46 % 0.0 mm
13:57 27.8 °C 15.1 °C 1024.6 hPa NNE 19.3 km/h 19.3 km/h 46 % 0.0 mm
14:02 27.2 °C 14.6 °C 1024.6 hPa ESE 4.8 km/h 20.9 km/h 46 % 0.0 mm
14:07 27.2 °C 14.6 °C 1024.6 hPa ENE 9.7 km/h 20.9 km/h 46 % 0.0 mm
14:12 27.2 °C 15.2 °C 1024.6 hPa NE 12.9 km/h 20.9 km/h 48 % 0.0 mm
14:17 27.5 °C 14.8 °C 1024.6 hPa NE 12.9 km/h 19.3 km/h 46 % 0.0 mm
14:22 27.3 °C 15.0 °C 1024.6 hPa NNE 4.8 km/h 25.7 km/h 47 % 0.0 mm
14:27 27.7 °C 15.0 °C 1024.6 hPa NE 4.8 km/h 25.7 km/h 46 % 0.0 mm
14:32 27.6 °C 15.3 °C 1024.6 hPa NE 4.8 km/h 17.7 km/h 47 % 0.0 mm
14:37 27.6 °C 15.3 °C 1024.3 hPa ENE 12.9 km/h 17.7 km/h 47 % 0.0 mm
14:42 27.9 °C 15.2 °C 1024.3 hPa NE 8.0 km/h 17.7 km/h 46 % 0.0 mm
14:47 28.1 °C 15.4 °C 1024.3 hPa NE 1.6 km/h 17.7 km/h 46 % 0.0 mm
14:52 28.4 °C 16.0 °C 1024.3 hPa North 11.3 km/h 19.3 km/h 47 % 0.0 mm
14:57 28.3 °C 15.6 °C 1024.3 hPa NNE 8.0 km/h 19.3 km/h 46 % 0.0 mm
15:02 28.1 °C 15.0 °C 1024.3 hPa ENE 6.4 km/h 19.3 km/h 45 % 0.0 mm
15:07 28.1 °C 15.0 °C 1024.3 hPa ENE 6.4 km/h 16.1 km/h 45 % 0.0 mm
15:12 28.0 °C 15.3 °C 1024.3 hPa ENE 8.0 km/h 16.1 km/h 46 % 0.0 mm
15:17 28.1 °C 15.4 °C 1024.3 hPa NE 17.7 km/h 24.1 km/h 46 % 0.0 mm
15:22 28.1 °C 15.0 °C 1024.3 hPa East 6.4 km/h 24.1 km/h 45 % 0.0 mm
15:27 28.1 °C 15.4 °C 1024.3 hPa NNE 11.3 km/h 19.3 km/h 46 % 0.0 mm
15:32 28.2 °C 15.5 °C 1024.3 hPa NW 3.2 km/h 19.3 km/h 46 % 0.0 mm
15:37 28.4 °C 15.3 °C 1024.3 hPa Calm   20.9 km/h 45 % 0.0 mm
15:42 28.7 °C 15.6 °C 1024.3 hPa East 6.4 km/h 20.9 km/h 45 % 0.0 mm
15:47 29.1 °C 15.2 °C 1024.3 hPa NW 9.7 km/h 20.9 km/h 43 % 0.0 mm
15:52 28.9 °C 15.4 °C 1024.3 hPa ENE 9.7 km/h 14.5 km/h 44 % 0.0 mm
15:57 28.7 °C 15.6 °C 1023.9 hPa ENE 12.9 km/h 14.5 km/h 45 % 0.0 mm
16:02 28.3 °C 15.2 °C 1023.9 hPa NE 8.0 km/h 17.7 km/h 45 % 0.0 mm
16:07 27.9 °C 14.9 °C 1024.3 hPa NNW 9.7 km/h 17.7 km/h 45 % 0.0 mm
16:12 28.1 °C 15.0 °C 1023.9 hPa NE 8.0 km/h 17.7 km/h 45 % 0.0 mm
16:17 28.6 °C 15.5 °C 1023.9 hPa NNE 9.7 km/h 12.9 km/h 45 % 0.0 mm
16:22 28.8 °C 15.7 °C 1023.9 hPa East 12.9 km/h 19.3 km/h 45 % 0.0 mm
16:27 28.6 °C 15.5 °C 1023.9 hPa ENE 6.4 km/h 19.3 km/h 45 % 0.0 mm
16:32 28.7 °C 15.6 °C 1023.9 hPa West 3.2 km/h 19.3 km/h 45 % 0.0 mm
16:37 28.9 °C 15.4 °C 1023.9 hPa NE 3.2 km/h 17.7 km/h 44 % 0.0 mm
16:42 28.7 °C 15.6 °C 1023.9 hPa NNE 11.3 km/h 17.7 km/h 45 % 0.0 mm
16:47 28.4 °C 15.3 °C 1023.6 hPa NNE 8.0 km/h 17.7 km/h 45 % 0.0 mm
16:52 28.1 °C 15.0 °C 1023.6 hPa NE 8.0 km/h 17.7 km/h 45 % 0.0 mm
16:57 28.5 °C 15.4 °C 1023.6 hPa NE 8.0 km/h 16.1 km/h 45 % 0.0 mm
17:02 28.9 °C 15.8 °C 1023.6 hPa North 6.4 km/h 16.1 km/h 45 % 0.0 mm
17:07 29.3 °C 15.8 °C 1023.6 hPa North 6.4 km/h 16.1 km/h 44 % 0.0 mm
17:12 29.0 °C 14.8 °C 1023.6 hPa NE 6.4 km/h 14.5 km/h 42 % 0.0 mm
17:17 29.1 °C 15.2 °C 1023.6 hPa NW 8.0 km/h 14.5 km/h 43 % 0.0 mm
17:22 29.1 °C 15.6 °C 1023.2 hPa NNE 4.8 km/h 14.5 km/h 44 % 0.0 mm
17:27 29.2 °C 15.3 °C 1023.2 hPa NNE 8.0 km/h 20.9 km/h 43 % 0.0 mm
17:32 28.9 °C 15.1 °C 1023.2 hPa NW 8.0 km/h 20.9 km/h 43 % 0.0 mm
17:37 29.3 °C 15.4 °C 1023.2 hPa NNW 4.8 km/h 22.5 km/h 43 % 0.0 mm
17:42 28.9 °C 15.1 °C 1023.2 hPa NE 11.3 km/h 22.5 km/h 43 % 0.0 mm
17:47 28.8 °C 15.3 °C 1023.2 hPa NE 6.4 km/h 22.5 km/h 44 % 0.0 mm
17:52 28.7 °C 14.9 °C 1023.2 hPa NNE 11.3 km/h 20.9 km/h 43 % 0.0 mm
17:57 28.8 °C 15.3 °C 1023.2 hPa Calm   19.3 km/h 44 % 0.0 mm
18:02 28.7 °C 15.2 °C 1023.2 hPa North 4.8 km/h 16.1 km/h 44 % 0.0 mm
18:07 28.8 °C 15.3 °C 1023.2 hPa West 1.6 km/h 16.1 km/h 44 % 0.0 mm
18:12 29.0 °C 15.9 °C 1023.2 hPa NE 14.5 km/h 16.1 km/h 45 % 0.0 mm
18:17 29.1 °C 15.2 °C 1022.9 hPa NE 16.1 km/h 16.1 km/h 43 % 0.0 mm
18:22 28.9 °C 15.4 °C 1022.9 hPa NNW 4.8 km/h 17.7 km/h 44 % 0.0 mm
18:27 28.9 °C 15.1 °C 1022.9 hPa North 3.2 km/h 22.5 km/h 43 % 0.0 mm
18:32 28.9 °C 14.7 °C 1022.9 hPa NNE 4.8 km/h 22.5 km/h 42 % 0.0 mm
18:37 28.9 °C 14.7 °C 1022.9 hPa North 1.6 km/h 19.3 km/h 42 % 0.0 mm
18:42 29.1 °C 15.2 °C 1022.9 hPa NNE 8.0 km/h 16.1 km/h 43 % 0.0 mm
18:47 29.1 °C 15.2 °C 1022.9 hPa Calm   17.7 km/h 43 % 0.0 mm
18:57 28.4 °C 15.3 °C 1022.9 hPa NW 6.4 km/h 19.3 km/h 45 % 0.0 mm
19:02 28.1 °C 15.0 °C 1022.9 hPa NNW 11.3 km/h 19.3 km/h 45 % 0.0 mm
19:07 27.9 °C 15.2 °C 1022.6 hPa NNW 8.0 km/h 19.3 km/h 46 % 0.0 mm
19:12 27.8 °C 15.5 °C 1022.6 hPa NNW 11.3 km/h 14.5 km/h 47 % 0.0 mm
19:17 27.7 °C 15.7 °C 1022.6 hPa NW 9.7 km/h 12.9 km/h 48 % 0.0 mm
19:22 27.7 °C 15.7 °C 1022.6 hPa WNW 4.8 km/h 12.9 km/h 48 % 0.0 mm
19:27 27.8 °C 15.5 °C 1022.6 hPa North 6.4 km/h 12.9 km/h 47 % 0.0 mm
19:32 27.7 °C 15.4 °C 1022.6 hPa NNW 6.4 km/h 11.3 km/h 47 % 0.0 mm
19:42 27.9 °C 15.5 °C 1022.6 hPa North 6.4 km/h 9.7 km/h 47 % 0.0 mm
19:47 27.8 °C 15.8 °C 1022.6 hPa North 6.4 km/h 12.9 km/h 48 % 0.0 mm
19:52 27.9 °C 15.9 °C 1022.2 hPa NE 3.2 km/h 12.9 km/h 48 % 0.0 mm
19:57 27.8 °C 15.8 °C 1022.2 hPa NE 3.2 km/h 12.9 km/h 48 % 0.0 mm
20:02 27.8 °C 15.8 °C 1022.2 hPa NE 6.4 km/h 12.9 km/h 48 % 0.0 mm
20:07 28.0 °C 16.0 °C 1022.2 hPa NE 4.8 km/h 12.9 km/h 48 % 0.0 mm
20:12 28.2 °C 15.8 °C 1022.2 hPa NNE 4.8 km/h 9.7 km/h 47 % 0.0 mm
20:17 28.2 °C 15.5 °C 1022.2 hPa North 8.0 km/h 9.7 km/h 46 % 0.0 mm
20:22 28.0 °C 15.6 °C 1022.6 hPa NE 8.0 km/h 14.5 km/h 47 % 0.0 mm
20:27 27.9 °C 15.5 °C 1022.6 hPa NE 4.8 km/h 14.5 km/h 47 % 0.0 mm
20:32 27.9 °C 15.5 °C 1022.6 hPa NNE 3.2 km/h 14.5 km/h 47 % 0.0 mm
20:37 27.8 °C 15.8 °C 1022.6 hPa North 6.4 km/h 12.9 km/h 48 % 0.0 mm
20:42 27.8 °C 15.8 °C 1022.6 hPa NNE 3.2 km/h 12.9 km/h 48 % 0.0 mm
20:47 27.8 °C 15.8 °C 1022.2 hPa NE 6.4 km/h 12.9 km/h 48 % 0.0 mm
20:57 27.7 °C 15.7 °C 1022.2 hPa NNE 3.2 km/h 8.0 km/h 48 % 0.0 mm
21:02 27.5 °C 15.8 °C 1022.2 hPa Calm   8.0 km/h 49 % 0.0 mm
21:07 27.2 °C 15.6 °C 1022.2 hPa NE 3.2 km/h 6.4 km/h 49 % 0.0 mm
21:12 27.0 °C 15.7 °C 1022.2 hPa NE 4.8 km/h 6.4 km/h 50 % 0.0 mm
21:17 26.7 °C 15.7 °C 1022.2 hPa NNE 1.6 km/h 6.4 km/h 51 % 0.0 mm
21:22 26.4 °C 15.8 °C 1022.2 hPa NE 3.2 km/h 6.4 km/h 52 % 0.0 mm
21:27 26.2 °C 15.9 °C 1022.2 hPa NE 3.2 km/h 6.4 km/h 53 % 0.0 mm
21:32 25.9 °C 15.9 °C 1022.6 hPa ENE 1.6 km/h 4.8 km/h 54 % 0.0 mm
21:37 25.6 °C 15.9 °C 1022.6 hPa Calm   4.8 km/h 55 % 0.0 mm
21:42 25.4 °C 16.0 °C 1022.6 hPa Calm   4.8 km/h 56 % 0.0 mm
21:47 25.3 °C 15.9 °C 1022.6 hPa Calm   3.2 km/h 56 % 0.0 mm
21:52 25.1 °C 16.0 °C 1022.6 hPa Calm     57 % 0.0 mm
21:57 24.9 °C 15.8 °C 1022.6 hPa Calm     57 % 0.0 mm
22:02 24.8 °C 16.0 °C 1022.6 hPa Calm     58 % 0.0 mm
22:07 24.6 °C 15.8 °C 1022.6 hPa Calm     58 % 0.0 mm
22:12 24.3 °C 15.8 °C 1022.6 hPa Calm     59 % 0.0 mm
22:17 24.1 °C 15.8 °C 1022.6 hPa Calm     60 % 0.0 mm
22:22 23.8 °C 15.8 °C 1022.6 hPa Calm     61 % 0.0 mm
22:27 23.4 °C 15.7 °C 1022.6 hPa NW 1.6 km/h 1.6 km/h 62 % 0.0 mm
22:37 23.1 °C 15.9 °C 1022.6 hPa Calm   1.6 km/h 64 % 0.0 mm
22:42 22.9 °C 15.7 °C 1022.6 hPa NW 1.6 km/h 1.6 km/h 64 % 0.0 mm
22:52 22.6 °C 15.7 °C 1022.6 hPa NNW 1.6 km/h 4.8 km/h 65 % 0.0 mm
22:57 22.6 °C 15.7 °C 1022.6 hPa NNW 3.2 km/h 4.8 km/h 65 % 0.0 mm
23:02 22.6 °C 15.7 °C 1022.6 hPa NNW 3.2 km/h 4.8 km/h 65 % 0.0 mm
23:07 22.4 °C 15.5 °C 1022.6 hPa Calm   3.2 km/h 65 % 0.0 mm
23:12 22.2 °C 15.5 °C 1022.6 hPa Calm   3.2 km/h 66 % 0.0 mm
23:22 21.9 °C 15.5 °C 1022.6 hPa NNW 1.6 km/h 3.2 km/h 67 % 0.0 mm
23:27 21.9 °C 15.5 °C 1022.6 hPa NNW 1.6 km/h 3.2 km/h 67 % 0.0 mm
23:32 21.9 °C 15.5 °C 1022.6 hPa Calm   3.2 km/h 67 % 0.0 mm
23:37 21.6 °C 15.4 °C 1022.6 hPa Calm   3.2 km/h 68 % 0.0 mm
23:42 21.3 °C 15.6 °C 1022.6 hPa Calm   3.2 km/h 70 % 0.0 mm
23:47 20.9 °C 15.7 °C 1022.6 hPa WNW 1.6 km/h 1.6 km/h 72 % 0.0 mm
23:57 20.7 °C 15.5 °C 1022.6 hPa WNW 3.2 km/h 3.2 km/h 72 % 0.0 mm
Meteo18
Compliments of Weather Underground - 4 mb

Script developed by  Jim McMurry - jmcmurry@mwt.net Adapted for the template by  Wim van der Kuil - Leuven-Template.eu

You find our weather info also at:

European Weather Network

Weather Underground

Equipment we use:

Weather-station
Davis Vue

Weather-program
Meteohub

Weather-server
Raspberry PI 2 B+

Provider
1 and 1

Davis Vue

Meteohub

Raspberry PI 2 B+

1 and 1